sensor_id;sensor_type;location;lat;lon;timestamp;temperature;humidity
2112;DHT22;1062;52.538;13.400;2023-09-07T00:01:43;19.60;99.90
2112;DHT22;1062;52.538;13.400;2023-09-07T00:04:09;19.50;99.90
2112;DHT22;1062;52.538;13.400;2023-09-07T00:06:35;19.50;99.90
2112;DHT22;1062;52.538;13.400;2023-09-07T00:09:02;19.50;99.90
2112;DHT22;1062;52.538;13.400;2023-09-07T00:11:27;19.50;99.90
2112;DHT22;1062;52.538;13.400;2023-09-07T00:13:53;19.40;99.90
2112;DHT22;1062;52.538;13.400;2023-09-07T00:16:19;19.40;99.90
2112;DHT22;1062;52.538;13.400;2023-09-07T00:18:44;19.40;99.90
2112;DHT22;1062;52.538;13.400;2023-09-07T00:21:10;19.40;99.90
2112;DHT22;1062;52.538;13.400;2023-09-07T00:23:36;19.40;99.90
2112;DHT22;1062;52.538;13.400;2023-09-07T00:26:01;19.30;99.90
2112;DHT22;1062;52.538;13.400;2023-09-07T00:28:27;19.30;99.90
2112;DHT22;1062;52.538;13.400;2023-09-07T00:30:53;19.20;99.90
2112;DHT22;1062;52.538;13.400;2023-09-07T00:33:18;19.20;99.90
2112;DHT22;1062;52.538;13.400;2023-09-07T00:35:44;19.10;99.90
2112;DHT22;1062;52.538;13.400;2023-09-07T00:38:09;19.00;99.90
2112;DHT22;1062;52.538;13.400;2023-09-07T00:40:37;19.00;99.90
2112;DHT22;1062;52.538;13.400;2023-09-07T00:43:02;19.00;99.90
2112;DHT22;1062;52.538;13.400;2023-09-07T00:45:30;18.90;99.90
2112;DHT22;1062;52.538;13.400;2023-09-07T00:47:55;18.90;99.90
2112;DHT22;1062;52.538;13.400;2023-09-07T00:50:21;18.90;99.90
2112;DHT22;1062;52.538;13.400;2023-09-07T00:52:47;18.90;99.90
2112;DHT22;1062;52.538;13.400;2023-09-07T00:55:13;18.90;99.90
2112;DHT22;1062;52.538;13.400;2023-09-07T00:57:39;18.90;99.90
2112;DHT22;1062;52.538;13.400;2023-09-07T01:00:06;18.90;99.90
2112;DHT22;1062;52.538;13.400;2023-09-07T01:02:33;18.90;99.90
2112;DHT22;1062;52.538;13.400;2023-09-07T01:04:59;18.90;99.90
2112;DHT22;1062;52.538;13.400;2023-09-07T01:07:34;18.90;99.90
2112;DHT22;1062;52.538;13.400;2023-09-07T01:10:02;18.90;99.90
2112;DHT22;1062;52.538;13.400;2023-09-07T01:12:27;18.80;99.90
2112;DHT22;1062;52.538;13.400;2023-09-07T01:14:53;18.80;99.90
2112;DHT22;1062;52.538;13.400;2023-09-07T01:17:20;18.80;99.90
2112;DHT22;1062;52.538;13.400;2023-09-07T01:19:48;18.70;99.90
2112;DHT22;1062;52.538;13.400;2023-09-07T01:22:21;18.70;99.90
2112;DHT22;1062;52.538;13.400;2023-09-07T01:24:50;18.60;99.90
2112;DHT22;1062;52.538;13.400;2023-09-07T01:27:17;18.50;99.90
2112;DHT22;1062;52.538;13.400;2023-09-07T01:29:42;18.50;99.90
2112;DHT22;1062;52.538;13.400;2023-09-07T01:32:08;18.50;99.90
2112;DHT22;1062;52.538;13.400;2023-09-07T01:34:35;18.40;99.90
2112;DHT22;1062;52.538;13.400;2023-09-07T01:37:01;18.40;99.90
2112;DHT22;1062;52.538;13.400;2023-09-07T01:39:27;18.30;99.90
2112;DHT22;1062;52.538;13.400;2023-09-07T01:41:52;18.30;99.90
2112;DHT22;1062;52.538;13.400;2023-09-07T01:44:18;18.30;99.90
2112;DHT22;1062;52.538;13.400;2023-09-07T01:46:43;18.30;99.90
2112;DHT22;1062;52.538;13.400;2023-09-07T01:49:09;18.30;99.90
2112;DHT22;1062;52.538;13.400;2023-09-07T01:51:34;18.30;99.90
2112;DHT22;1062;52.538;13.400;2023-09-07T01:54:00;18.30;99.90
2112;DHT22;1062;52.538;13.400;2023-09-07T01:56:26;18.20;99.90
2112;DHT22;1062;52.538;13.400;2023-09-07T01:58:52;18.20;99.90
2112;DHT22;1062;52.538;13.400;2023-09-07T02:03:47;18.20;99.90
2112;DHT22;1062;52.538;13.400;2023-09-07T02:06:12;18.20;99.90
2112;DHT22;1062;52.538;13.400;2023-09-07T02:08:38;18.10;99.90
2112;DHT22;1062;52.538;13.400;2023-09-07T02:11:05;18.30;99.90
2112;DHT22;1062;52.538;13.400;2023-09-07T02:13:31;18.20;99.90
2112;DHT22;1062;52.538;13.400;2023-09-07T02:15:57;18.10;99.90
2112;DHT22;1062;52.538;13.400;2023-09-07T02:18:22;18.10;99.90
2112;DHT22;1062;52.538;13.400;2023-09-07T02:20:48;18.10;99.90
2112;DHT22;1062;52.538;13.400;2023-09-07T02:23:14;18.00;99.90
2112;DHT22;1062;52.538;13.400;2023-09-07T02:25:40;18.10;99.90
2112;DHT22;1062;52.538;13.400;2023-09-07T02:28:06;18.00;99.90
2112;DHT22;1062;52.538;13.400;2023-09-07T02:30:32;17.90;99.90
2112;DHT22;1062;52.538;13.400;2023-09-07T02:32:57;17.90;99.90
2112;DHT22;1062;52.538;13.400;2023-09-07T02:35:23;17.90;99.90
2112;DHT22;1062;52.538;13.400;2023-09-07T02:37:48;17.90;99.90
2112;DHT22;1062;52.538;13.400;2023-09-07T02:40:14;17.90;99.90
2112;DHT22;1062;52.538;13.400;2023-09-07T02:42:41;18.00;99.90
2112;DHT22;1062;52.538;13.400;2023-09-07T02:45:12;18.00;99.90
2112;DHT22;1062;52.538;13.400;2023-09-07T02:47:39;17.90;99.90
2112;DHT22;1062;52.538;13.400;2023-09-07T02:50:05;18.00;99.90
2112;DHT22;1062;52.538;13.400;2023-09-07T02:52:30;18.00;99.90
2112;DHT22;1062;52.538;13.400;2023-09-07T02:54:56;17.90;99.90
2112;DHT22;1062;52.538;13.400;2023-09-07T02:57:22;17.90;99.90
2112;DHT22;1062;52.538;13.400;2023-09-07T02:59:47;17.90;99.90
2112;DHT22;1062;52.538;13.400;2023-09-07T03:02:13;17.90;99.90
2112;DHT22;1062;52.538;13.400;2023-09-07T03:04:38;17.90;99.90
2112;DHT22;1062;52.538;13.400;2023-09-07T03:07:04;17.90;99.90
2112;DHT22;1062;52.538;13.400;2023-09-07T03:09:29;17.90;99.90
2112;DHT22;1062;52.538;13.400;2023-09-07T03:11:55;17.90;99.90
2112;DHT22;1062;52.538;13.400;2023-09-07T03:14:21;17.80;99.90
2112;DHT22;1062;52.538;13.400;2023-09-07T03:16:46;17.90;99.90
2112;DHT22;1062;52.538;13.400;2023-09-07T03:19:15;17.90;99.90
2112;DHT22;1062;52.538;13.400;2023-09-07T03:21:41;17.90;99.90
2112;DHT22;1062;52.538;13.400;2023-09-07T03:24:06;18.00;99.90
2112;DHT22;1062;52.538;13.400;2023-09-07T03:26:32;18.00;99.90
2112;DHT22;1062;52.538;13.400;2023-09-07T03:28:57;18.00;99.90
2112;DHT22;1062;52.538;13.400;2023-09-07T03:31:23;18.00;99.90
2112;DHT22;1062;52.538;13.400;2023-09-07T03:33:49;18.00;99.90
2112;DHT22;1062;52.538;13.400;2023-09-07T03:36:15;17.90;99.90
2112;DHT22;1062;52.538;13.400;2023-09-07T03:38:41;17.90;99.90
2112;DHT22;1062;52.538;13.400;2023-09-07T03:41:07;17.90;99.90
2112;DHT22;1062;52.538;13.400;2023-09-07T03:43:32;17.90;99.90
2112;DHT22;1062;52.538;13.400;2023-09-07T03:45:58;17.90;99.90
2112;DHT22;1062;52.538;13.400;2023-09-07T03:48:24;17.90;99.90
2112;DHT22;1062;52.538;13.400;2023-09-07T03:50:50;17.90;99.90
2112;DHT22;1062;52.538;13.400;2023-09-07T03:53:15;17.90;99.90
2112;DHT22;1062;52.538;13.400;2023-09-07T03:55:44;17.90;99.90
2112;DHT22;1062;52.538;13.400;2023-09-07T03:58:10;17.90;99.90
2112;DHT22;1062;52.538;13.400;2023-09-07T04:00:40;17.90;99.90
2112;DHT22;1062;52.538;13.400;2023-09-07T04:03:09;17.80;99.90
2112;DHT22;1062;52.538;13.400;2023-09-07T04:05:37;17.90;99.90
2112;DHT22;1062;52.538;13.400;2023-09-07T04:08:03;17.80;99.90
2112;DHT22;1062;52.538;13.400;2023-09-07T04:10:28;17.80;99.90
2112;DHT22;1062;52.538;13.400;2023-09-07T04:12:54;17.80;99.90
2112;DHT22;1062;52.538;13.400;2023-09-07T04:15:20;17.80;99.90
2112;DHT22;1062;52.538;13.400;2023-09-07T04:17:45;17.70;99.90
2112;DHT22;1062;52.538;13.400;2023-09-07T04:20:11;17.70;99.90
2112;DHT22;1062;52.538;13.400;2023-09-07T04:22:38;17.70;99.90
2112;DHT22;1062;52.538;13.400;2023-09-07T04:25:05;17.60;99.90
2112;DHT22;1062;52.538;13.400;2023-09-07T04:27:31;17.70;99.90
2112;DHT22;1062;52.538;13.400;2023-09-07T04:29:56;17.70;99.90
2112;DHT22;1062;52.538;13.400;2023-09-07T04:32:22;17.60;99.90
2112;DHT22;1062;52.538;13.400;2023-09-07T04:34:55;17.60;99.90
2112;DHT22;1062;52.538;13.400;2023-09-07T04:37:22;17.60;99.90
2112;DHT22;1062;52.538;13.400;2023-09-07T04:39:51;17.60;99.90
2112;DHT22;1062;52.538;13.400;2023-09-07T04:42:18;17.60;99.90
2112;DHT22;1062;52.538;13.400;2023-09-07T04:44:43;17.60;99.90
2112;DHT22;1062;52.538;13.400;2023-09-07T04:47:09;17.60;99.90
2112;DHT22;1062;52.538;13.400;2023-09-07T04:49:34;17.70;99.90
2112;DHT22;1062;52.538;13.400;2023-09-07T04:52:00;17.80;99.90
2112;DHT22;1062;52.538;13.400;2023-09-07T04:54:25;17.70;99.90
2112;DHT22;1062;52.538;13.400;2023-09-07T04:56:51;17.70;99.90
2112;DHT22;1062;52.538;13.400;2023-09-07T04:59:17;17.80;99.90
2112;DHT22;1062;52.538;13.400;2023-09-07T05:01:43;17.80;99.90
2112;DHT22;1062;52.538;13.400;2023-09-07T05:04:08;17.80;99.90
2112;DHT22;1062;52.538;13.400;2023-09-07T05:06:34;17.90;99.90
2112;DHT22;1062;52.538;13.400;2023-09-07T05:09:03;17.90;99.90
2112;DHT22;1062;52.538;13.400;2023-09-07T05:11:29;17.90;99.90
2112;DHT22;1062;52.538;13.400;2023-09-07T05:13:54;17.90;99.90
2112;DHT22;1062;52.538;13.400;2023-09-07T05:16:20;17.90;99.90
2112;DHT22;1062;52.538;13.400;2023-09-07T05:18:46;18.00;99.90
2112;DHT22;1062;52.538;13.400;2023-09-07T05:21:15;17.90;99.90
2112;DHT22;1062;52.538;13.400;2023-09-07T05:23:41;17.90;99.90
2112;DHT22;1062;52.538;13.400;2023-09-07T05:26:07;17.90;99.90
2112;DHT22;1062;52.538;13.400;2023-09-07T05:28:32;18.00;99.90
2112;DHT22;1062;52.538;13.400;2023-09-07T05:30:58;18.10;99.90
2112;DHT22;1062;52.538;13.400;2023-09-07T05:33:23;18.10;99.90
2112;DHT22;1062;52.538;13.400;2023-09-07T05:35:49;18.10;99.90
2112;DHT22;1062;52.538;13.400;2023-09-07T05:38:15;18.20;99.90
2112;DHT22;1062;52.538;13.400;2023-09-07T05:40:42;18.20;99.90
2112;DHT22;1062;52.538;13.400;2023-09-07T05:43:09;18.30;99.90
2112;DHT22;1062;52.538;13.400;2023-09-07T05:45:38;18.40;99.90
2112;DHT22;1062;52.538;13.400;2023-09-07T05:48:04;18.60;99.90
2112;DHT22;1062;52.538;13.400;2023-09-07T05:50:31;19.00;99.90
2112;DHT22;1062;52.538;13.400;2023-09-07T05:52:57;19.40;99.90
2112;DHT22;1062;52.538;13.400;2023-09-07T05:55:22;19.70;99.90
2112;DHT22;1062;52.538;13.400;2023-09-07T05:57:49;20.10;99.90
2112;DHT22;1062;52.538;13.400;2023-09-07T06:00:15;20.60;99.90
2112;DHT22;1062;52.538;13.400;2023-09-07T06:02:42;21.10;99.90
2112;DHT22;1062;52.538;13.400;2023-09-07T06:05:08;21.70;99.90
2112;DHT22;1062;52.538;13.400;2023-09-07T06:07:34;22.10;99.90
2112;DHT22;1062;52.538;13.400;2023-09-07T06:10:00;22.30;99.90
2112;DHT22;1062;52.538;13.400;2023-09-07T06:12:25;22.40;99.90
2112;DHT22;1062;52.538;13.400;2023-09-07T06:14:51;22.50;99.90
2112;DHT22;1062;52.538;13.400;2023-09-07T06:17:16;22.70;99.90
2112;DHT22;1062;52.538;13.400;2023-09-07T06:19:42;22.90;99.90
2112;DHT22;1062;52.538;13.400;2023-09-07T06:22:08;23.50;99.90
2112;DHT22;1062;52.538;13.400;2023-09-07T06:24:33;24.00;99.90
2112;DHT22;1062;52.538;13.400;2023-09-07T06:26:59;24.10;99.90
2112;DHT22;1062;52.538;13.400;2023-09-07T06:29:25;24.20;99.90
2112;DHT22;1062;52.538;13.400;2023-09-07T06:31:50;24.20;99.90
2112;DHT22;1062;52.538;13.400;2023-09-07T06:34:17;23.90;99.90
2112;DHT22;1062;52.538;13.400;2023-09-07T06:36:43;24.20;99.90
2112;DHT22;1062;52.538;13.400;2023-09-07T06:39:08;24.60;99.90
2112;DHT22;1062;52.538;13.400;2023-09-07T06:41:34;24.70;99.90
2112;DHT22;1062;52.538;13.400;2023-09-07T06:44:00;24.70;99.90
2112;DHT22;1062;52.538;13.400;2023-09-07T06:48:53;25.70;99.90
2112;DHT22;1062;52.538;13.400;2023-09-07T06:51:19;25.60;99.90
2112;DHT22;1062;52.538;13.400;2023-09-07T06:53:45;26.20;99.90
2112;DHT22;1062;52.538;13.400;2023-09-07T06:56:10;26.70;99.90
2112;DHT22;1062;52.538;13.400;2023-09-07T06:58:36;27.00;99.90
2112;DHT22;1062;52.538;13.400;2023-09-07T07:01:02;27.10;99.90
2112;DHT22;1062;52.538;13.400;2023-09-07T07:03:30;27.20;99.90
2112;DHT22;1062;52.538;13.400;2023-09-07T07:05:56;27.20;99.90
2112;DHT22;1062;52.538;13.400;2023-09-07T07:08:22;27.40;99.90
2112;DHT22;1062;52.538;13.400;2023-09-07T07:10:48;27.40;99.90
2112;DHT22;1062;52.538;13.400;2023-09-07T07:13:14;27.90;99.90
2112;DHT22;1062;52.538;13.400;2023-09-07T07:15:39;28.20;99.90
2112;DHT22;1062;52.538;13.400;2023-09-07T07:18:05;28.50;99.90
2112;DHT22;1062;52.538;13.400;2023-09-07T07:20:38;28.80;99.90
2112;DHT22;1062;52.538;13.400;2023-09-07T07:23:04;28.80;99.90
2112;DHT22;1062;52.538;13.400;2023-09-07T07:25:32;29.20;99.90
2112;DHT22;1062;52.538;13.400;2023-09-07T07:28:05;29.00;99.90
2112;DHT22;1062;52.538;13.400;2023-09-07T07:30:35;29.30;99.90
2112;DHT22;1062;52.538;13.400;2023-09-07T07:33:02;29.30;99.90
2112;DHT22;1062;52.538;13.400;2023-09-07T07:35:29;29.10;99.90
2112;DHT22;1062;52.538;13.400;2023-09-07T07:37:55;29.20;99.30
2112;DHT22;1062;52.538;13.400;2023-09-07T07:40:20;29.20;99.20
2112;DHT22;1062;52.538;13.400;2023-09-07T07:42:47;29.20;98.70
2112;DHT22;1062;52.538;13.400;2023-09-07T07:45:13;28.40;99.40
2112;DHT22;1062;52.538;13.400;2023-09-07T07:47:40;28.80;99.40
2112;DHT22;1062;52.538;13.400;2023-09-07T07:50:07;28.90;99.20
2112;DHT22;1062;52.538;13.400;2023-09-07T07:52:33;29.30;98.30
2112;DHT22;1062;52.538;13.400;2023-09-07T07:54:59;29.40;97.80
2112;DHT22;1062;52.538;13.400;2023-09-07T07:57:24;29.40;97.60
2112;DHT22;1062;52.538;13.400;2023-09-07T07:59:50;29.60;97.50
2112;DHT22;1062;52.538;13.400;2023-09-07T08:02:16;29.50;97.70
2112;DHT22;1062;52.538;13.400;2023-09-07T08:04:41;28.80;97.10
2112;DHT22;1062;52.538;13.400;2023-09-07T08:07:07;29.00;97.10
2112;DHT22;1062;52.538;13.400;2023-09-07T08:09:34;28.60;98.20
2112;DHT22;1062;52.538;13.400;2023-09-07T08:11:59;29.30;97.70
2112;DHT22;1062;52.538;13.400;2023-09-07T08:14:28;29.60;95.70
2112;DHT22;1062;52.538;13.400;2023-09-07T08:16:54;29.80;96.30
2112;DHT22;1062;52.538;13.400;2023-09-07T08:19:20;29.80;95.60
2112;DHT22;1062;52.538;13.400;2023-09-07T08:21:46;30.10;95.40
2112;DHT22;1062;52.538;13.400;2023-09-07T08:24:12;30.10;94.30
2112;DHT22;1062;52.538;13.400;2023-09-07T08:26:38;29.00;94.80
2112;DHT22;1062;52.538;13.400;2023-09-07T08:29:04;29.60;94.80
2112;DHT22;1062;52.538;13.400;2023-09-07T08:31:38;29.50;95.10
2112;DHT22;1062;52.538;13.400;2023-09-07T08:34:07;29.70;95.20
2112;DHT22;1062;52.538;13.400;2023-09-07T08:36:40;30.00;94.80
2112;DHT22;1062;52.538;13.400;2023-09-07T08:39:06;29.60;93.90
2112;DHT22;1062;52.538;13.400;2023-09-07T08:41:38;29.20;94.60
2112;DHT22;1062;52.538;13.400;2023-09-07T08:44:10;29.30;95.00
2112;DHT22;1062;52.538;13.400;2023-09-07T08:46:37;30.10;93.60
2112;DHT22;1062;52.538;13.400;2023-09-07T08:49:03;29.90;94.60
2112;DHT22;1062;52.538;13.400;2023-09-07T08:51:30;30.40;93.70
2112;DHT22;1062;52.538;13.400;2023-09-07T08:54:00;29.70;92.90
2112;DHT22;1062;52.538;13.400;2023-09-07T08:56:26;29.80;93.30
2112;DHT22;1062;52.538;13.400;2023-09-07T08:58:54;29.80;92.80
2112;DHT22;1062;52.538;13.400;2023-09-07T09:01:20;29.00;93.40
2112;DHT22;1062;52.538;13.400;2023-09-07T09:03:52;28.90;93.70
2112;DHT22;1062;52.538;13.400;2023-09-07T09:06:20;29.00;93.70
2112;DHT22;1062;52.538;13.400;2023-09-07T09:08:52;29.00;94.00
2112;DHT22;1062;52.538;13.400;2023-09-07T09:11:18;29.30;93.30
2112;DHT22;1062;52.538;13.400;2023-09-07T09:13:44;29.00;93.70
2112;DHT22;1062;52.538;13.400;2023-09-07T09:16:10;29.00;93.60
2112;DHT22;1062;52.538;13.400;2023-09-07T09:18:36;28.80;93.90
2112;DHT22;1062;52.538;13.400;2023-09-07T09:21:03;28.80;93.90
2112;DHT22;1062;52.538;13.400;2023-09-07T09:23:33;28.50;94.40
2112;DHT22;1062;52.538;13.400;2023-09-07T09:26:00;28.70;94.20
2112;DHT22;1062;52.538;13.400;2023-09-07T09:28:27;28.80;93.10
2112;DHT22;1062;52.538;13.400;2023-09-07T09:30:53;28.40;94.30
2112;DHT22;1062;52.538;13.400;2023-09-07T09:33:20;28.30;94.50
2112;DHT22;1062;52.538;13.400;2023-09-07T09:35:47;28.70;94.30
2112;DHT22;1062;52.538;13.400;2023-09-07T09:38:13;29.00;93.80
2112;DHT22;1062;52.538;13.400;2023-09-07T09:40:39;28.70;93.90
2112;DHT22;1062;52.538;13.400;2023-09-07T09:43:05;28.70;94.50
2112;DHT22;1062;52.538;13.400;2023-09-07T09:45:32;28.90;93.30
2112;DHT22;1062;52.538;13.400;2023-09-07T09:47:58;28.50;94.30
2112;DHT22;1062;52.538;13.400;2023-09-07T09:50:27;28.20;94.10
2112;DHT22;1062;52.538;13.400;2023-09-07T09:52:53;28.00;94.60
2112;DHT22;1062;52.538;13.400;2023-09-07T09:55:19;27.70;94.70
2112;DHT22;1062;52.538;13.400;2023-09-07T09:57:45;27.70;95.30
2112;DHT22;1062;52.538;13.400;2023-09-07T10:00:11;27.90;94.40
2112;DHT22;1062;52.538;13.400;2023-09-07T10:03:17;27.80;94.60
2112;DHT22;1062;52.538;13.400;2023-09-07T10:05:45;27.50;95.10
2112;DHT22;1062;52.538;13.400;2023-09-07T10:08:16;27.30;95.20
2112;DHT22;1062;52.538;13.400;2023-09-07T10:10:43;27.40;94.60
2112;DHT22;1062;52.538;13.400;2023-09-07T10:13:12;27.20;95.60
2112;DHT22;1062;52.538;13.400;2023-09-07T10:15:38;27.10;94.70
2112;DHT22;1062;52.538;13.400;2023-09-07T10:18:14;26.90;94.20
2112;DHT22;1062;52.538;13.400;2023-09-07T10:21:06;26.80;94.50
2112;DHT22;1062;52.538;13.400;2023-09-07T10:23:38;26.80;95.00
2112;DHT22;1062;52.538;13.400;2023-09-07T10:26:05;27.00;94.80
2112;DHT22;1062;52.538;13.400;2023-09-07T10:28:31;27.10;93.10
2112;DHT22;1062;52.538;13.400;2023-09-07T10:31:13;27.10;93.00
2112;DHT22;1062;52.538;13.400;2023-09-07T10:33:39;26.90;92.70
2112;DHT22;1062;52.538;13.400;2023-09-07T10:36:05;26.90;92.20
2112;DHT22;1062;52.538;13.400;2023-09-07T10:38:32;26.90;92.50
2112;DHT22;1062;52.538;13.400;2023-09-07T10:41:00;27.10;92.80
2112;DHT22;1062;52.538;13.400;2023-09-07T10:43:29;26.90;93.00
2112;DHT22;1062;52.538;13.400;2023-09-07T10:45:56;27.10;93.10
2112;DHT22;1062;52.538;13.400;2023-09-07T10:48:23;27.00;92.90
2112;DHT22;1062;52.538;13.400;2023-09-07T10:50:49;27.10;92.50
2112;DHT22;1062;52.538;13.400;2023-09-07T10:53:24;27.20;92.40
2112;DHT22;1062;52.538;13.400;2023-09-07T10:55:50;27.40;92.00
2112;DHT22;1062;52.538;13.400;2023-09-07T10:58:29;27.40;91.80
2112;DHT22;1062;52.538;13.400;2023-09-07T11:00:55;27.50;91.80
2112;DHT22;1062;52.538;13.400;2023-09-07T11:03:21;27.60;91.80
2112;DHT22;1062;52.538;13.400;2023-09-07T11:05:48;27.50;91.30
2112;DHT22;1062;52.538;13.400;2023-09-07T11:08:14;27.40;91.60
2112;DHT22;1062;52.538;13.400;2023-09-07T11:10:40;27.50;91.20
2112;DHT22;1062;52.538;13.400;2023-09-07T11:13:06;27.60;91.40
2112;DHT22;1062;52.538;13.400;2023-09-07T11:15:32;27.40;91.60
2112;DHT22;1062;52.538;13.400;2023-09-07T11:18:05;27.40;92.00
2112;DHT22;1062;52.538;13.400;2023-09-07T11:20:32;27.50;92.10
2112;DHT22;1062;52.538;13.400;2023-09-07T11:22:59;27.40;92.40
2112;DHT22;1062;52.538;13.400;2023-09-07T11:25:25;27.60;92.40
2112;DHT22;1062;52.538;13.400;2023-09-07T11:27:52;27.60;92.90
2112;DHT22;1062;52.538;13.400;2023-09-07T11:30:21;27.60;92.30
2112;DHT22;1062;52.538;13.400;2023-09-07T11:32:47;27.60;92.00
2112;DHT22;1062;52.538;13.400;2023-09-07T11:35:12;27.60;91.60
2112;DHT22;1062;52.538;13.400;2023-09-07T11:37:39;27.40;91.30
2112;DHT22;1062;52.538;13.400;2023-09-07T11:40:06;27.50;91.20
2112;DHT22;1062;52.538;13.400;2023-09-07T11:42:38;27.50;90.80
2112;DHT22;1062;52.538;13.400;2023-09-07T11:45:06;27.60;90.30
2112;DHT22;1062;52.538;13.400;2023-09-07T11:47:31;27.70;91.20
2112;DHT22;1062;52.538;13.400;2023-09-07T11:49:57;27.90;90.60
2112;DHT22;1062;52.538;13.400;2023-09-07T11:52:23;27.70;90.30
2112;DHT22;1062;52.538;13.400;2023-09-07T11:54:48;27.60;90.40
2112;DHT22;1062;52.538;13.400;2023-09-07T11:57:14;27.70;90.70
2112;DHT22;1062;52.538;13.400;2023-09-07T11:59:41;27.60;90.70
2112;DHT22;1062;52.538;13.400;2023-09-07T12:02:07;27.70;90.90
2112;DHT22;1062;52.538;13.400;2023-09-07T12:04:32;27.80;91.10
2112;DHT22;1062;52.538;13.400;2023-09-07T12:06:58;27.80;90.40
2112;DHT22;1062;52.538;13.400;2023-09-07T12:09:24;27.70;90.30
2112;DHT22;1062;52.538;13.400;2023-09-07T12:11:50;27.80;89.90
2112;DHT22;1062;52.538;13.400;2023-09-07T12:14:15;27.80;89.80
2112;DHT22;1062;52.538;13.400;2023-09-07T12:16:41;27.70;89.40
2112;DHT22;1062;52.538;13.400;2023-09-07T12:19:06;27.70;90.10
2112;DHT22;1062;52.538;13.400;2023-09-07T12:21:32;27.70;90.80
2112;DHT22;1062;52.538;13.400;2023-09-07T12:23:58;28.00;90.60
2112;DHT22;1062;52.538;13.400;2023-09-07T12:26:23;27.90;90.40
2112;DHT22;1062;52.538;13.400;2023-09-07T12:28:49;27.90;89.40
2112;DHT22;1062;52.538;13.400;2023-09-07T12:31:15;28.00;89.10
2112;DHT22;1062;52.538;13.400;2023-09-07T12:33:40;27.90;88.90
2112;DHT22;1062;52.538;13.400;2023-09-07T12:36:06;27.90;89.80
2112;DHT22;1062;52.538;13.400;2023-09-07T12:38:34;27.90;90.40
2112;DHT22;1062;52.538;13.400;2023-09-07T12:41:00;28.00;90.10
2112;DHT22;1062;52.538;13.400;2023-09-07T12:43:26;27.90;89.20
2112;DHT22;1062;52.538;13.400;2023-09-07T12:45:51;28.00;90.20
2112;DHT22;1062;52.538;13.400;2023-09-07T12:48:17;28.00;89.20
2112;DHT22;1062;52.538;13.400;2023-09-07T12:50:42;28.00;89.40
2112;DHT22;1062;52.538;13.400;2023-09-07T12:53:08;28.00;89.20
2112;DHT22;1062;52.538;13.400;2023-09-07T12:55:34;27.90;89.10
2112;DHT22;1062;52.538;13.400;2023-09-07T12:58:00;27.90;90.10
2112;DHT22;1062;52.538;13.400;2023-09-07T13:00:26;27.80;90.30
2112;DHT22;1062;52.538;13.400;2023-09-07T13:02:52;28.00;90.10
2112;DHT22;1062;52.538;13.400;2023-09-07T13:05:19;28.00;89.00
2112;DHT22;1062;52.538;13.400;2023-09-07T13:07:45;28.00;89.20
2112;DHT22;1062;52.538;13.400;2023-09-07T13:10:10;28.00;90.10
2112;DHT22;1062;52.538;13.400;2023-09-07T13:12:36;28.00;89.80
2112;DHT22;1062;52.538;13.400;2023-09-07T13:15:03;28.00;89.70
2112;DHT22;1062;52.538;13.400;2023-09-07T13:17:29;28.20;89.70
2112;DHT22;1062;52.538;13.400;2023-09-07T13:19:54;28.10;90.30
2112;DHT22;1062;52.538;13.400;2023-09-07T13:22:20;28.20;89.70
2112;DHT22;1062;52.538;13.400;2023-09-07T13:24:46;28.10;90.00
2112;DHT22;1062;52.538;13.400;2023-09-07T13:27:12;28.20;88.90
2112;DHT22;1062;52.538;13.400;2023-09-07T13:29:37;28.20;89.60
2112;DHT22;1062;52.538;13.400;2023-09-07T13:32:03;28.20;88.90
2112;DHT22;1062;52.538;13.400;2023-09-07T13:34:29;28.20;88.70
2112;DHT22;1062;52.538;13.400;2023-09-07T13:36:55;28.20;88.10
2112;DHT22;1062;52.538;13.400;2023-09-07T13:39:21;28.30;88.10
2112;DHT22;1062;52.538;13.400;2023-09-07T13:41:47;28.30;88.20
2112;DHT22;1062;52.538;13.400;2023-09-07T13:44:14;28.50;88.50
2112;DHT22;1062;52.538;13.400;2023-09-07T13:46:40;28.50;88.00
2112;DHT22;1062;52.538;13.400;2023-09-07T13:49:06;28.40;88.30
2112;DHT22;1062;52.538;13.400;2023-09-07T13:51:31;28.30;86.00
2112;DHT22;1062;52.538;13.400;2023-09-07T13:54:03;28.40;87.00
2112;DHT22;1062;52.538;13.400;2023-09-07T13:56:29;28.40;88.10
2112;DHT22;1062;52.538;13.400;2023-09-07T13:58:54;28.40;88.10
2112;DHT22;1062;52.538;13.400;2023-09-07T14:01:20;28.20;87.00
2112;DHT22;1062;52.538;13.400;2023-09-07T14:03:46;28.30;86.60
2112;DHT22;1062;52.538;13.400;2023-09-07T14:06:12;28.30;86.50
2112;DHT22;1062;52.538;13.400;2023-09-07T14:08:37;28.30;85.40
2112;DHT22;1062;52.538;13.400;2023-09-07T14:11:03;28.30;86.40
2112;DHT22;1062;52.538;13.400;2023-09-07T14:13:29;28.20;87.40
2112;DHT22;1062;52.538;13.400;2023-09-07T14:15:54;28.20;87.60
2112;DHT22;1062;52.538;13.400;2023-09-07T14:18:20;28.30;88.60
2112;DHT22;1062;52.538;13.400;2023-09-07T14:20:45;28.30;86.90
2112;DHT22;1062;52.538;13.400;2023-09-07T14:23:11;28.30;86.40
2112;DHT22;1062;52.538;13.400;2023-09-07T14:25:36;28.40;86.40
2112;DHT22;1062;52.538;13.400;2023-09-07T14:28:03;28.40;86.80
2112;DHT22;1062;52.538;13.400;2023-09-07T14:30:29;28.40;86.70
2112;DHT22;1062;52.538;13.400;2023-09-07T14:32:54;28.40;86.40
2112;DHT22;1062;52.538;13.400;2023-09-07T14:35:20;28.40;86.70
2112;DHT22;1062;52.538;13.400;2023-09-07T14:37:45;28.30;86.20
2112;DHT22;1062;52.538;13.400;2023-09-07T14:40:11;28.30;85.30
2112;DHT22;1062;52.538;13.400;2023-09-07T14:42:38;28.30;84.80
2112;DHT22;1062;52.538;13.400;2023-09-07T14:45:04;28.30;86.50
2112;DHT22;1062;52.538;13.400;2023-09-07T14:47:30;28.30;86.40
2112;DHT22;1062;52.538;13.400;2023-09-07T14:49:56;28.30;86.60
2112;DHT22;1062;52.538;13.400;2023-09-07T14:52:22;28.20;85.90
2112;DHT22;1062;52.538;13.400;2023-09-07T14:54:50;28.20;86.20
2112;DHT22;1062;52.538;13.400;2023-09-07T14:57:15;28.20;85.30
2112;DHT22;1062;52.538;13.400;2023-09-07T14:59:41;28.20;86.50
2112;DHT22;1062;52.538;13.400;2023-09-07T15:02:07;28.20;86.50
2112;DHT22;1062;52.538;13.400;2023-09-07T15:04:33;28.20;86.30
2112;DHT22;1062;52.538;13.400;2023-09-07T15:07:00;28.20;87.20
2112;DHT22;1062;52.538;13.400;2023-09-07T15:09:26;28.30;85.60
2112;DHT22;1062;52.538;13.400;2023-09-07T15:11:51;28.30;86.40
2112;DHT22;1062;52.538;13.400;2023-09-07T15:14:18;28.30;87.10
2112;DHT22;1062;52.538;13.400;2023-09-07T15:16:44;28.20;84.60
2112;DHT22;1062;52.538;13.400;2023-09-07T15:19:10;28.10;85.10
2112;DHT22;1062;52.538;13.400;2023-09-07T15:21:35;28.10;85.10
2112;DHT22;1062;52.538;13.400;2023-09-07T15:24:01;28.20;86.00
2112;DHT22;1062;52.538;13.400;2023-09-07T15:26:26;28.20;86.30
2112;DHT22;1062;52.538;13.400;2023-09-07T15:28:52;28.10;86.20
2112;DHT22;1062;52.538;13.400;2023-09-07T15:31:18;28.00;85.40
2112;DHT22;1062;52.538;13.400;2023-09-07T15:33:43;28.00;85.40
2112;DHT22;1062;52.538;13.400;2023-09-07T15:36:09;28.00;85.60
2112;DHT22;1062;52.538;13.400;2023-09-07T15:38:34;28.00;85.10
2112;DHT22;1062;52.538;13.400;2023-09-07T15:41:00;27.90;85.60
2112;DHT22;1062;52.538;13.400;2023-09-07T15:43:31;27.90;85.60
2112;DHT22;1062;52.538;13.400;2023-09-07T15:45:58;27.90;86.90